Dinnington, United Kingdom
Current Conditions -  °F | °C
As of 3:50 PM on Friday 28 Nov 2014 (Local Time) from EGCN Reporting Station
Haze Haze  
Wind Chill: 10°   Ceiling: 400
Heat Index: 10°   Visibility: 2.8mi
Dew Point: 10°   Wind: 9mph
Humidity: 100%   Direction: 80°E
Pressure: 29.77"   Gusts: NA
Location:  53.37°N, 1.2°W
Report Text: EGCN 281550Z 08008KT 040V110 4600 HZ OVC004 10/10 Q1008
Loading
Personal Weather Stations






























Interactive Weather Map New forecast layout! Learn more

10-Day Weather Forecast

Advertisements
Track Severe Weather on mobile